sensor_id;sensor_type;location;lat;lon;timestamp;temperature;humidity
3986;DHT22;2007;48.750;9.278;2022-11-09T00:00:48;15.10;56.90
3986;DHT22;2007;48.750;9.278;2022-11-09T00:03:17;15.20;57.00
3986;DHT22;2007;48.750;9.278;2022-11-09T00:05:54;15.20;57.00
3986;DHT22;2007;48.750;9.278;2022-11-09T00:08:22;15.20;57.00
3986;DHT22;2007;48.750;9.278;2022-11-09T00:10:50;15.20;57.00
3986;DHT22;2007;48.750;9.278;2022-11-09T00:13:17;15.20;57.00
3986;DHT22;2007;48.750;9.278;2022-11-09T00:15:46;15.20;57.00
3986;DHT22;2007;48.750;9.278;2022-11-09T00:18:14;15.10;56.90
3986;DHT22;2007;48.750;9.278;2022-11-09T00:20:43;15.10;56.80
3986;DHT22;2007;48.750;9.278;2022-11-09T00:23:14;15.20;57.00
3986;DHT22;2007;48.750;9.278;2022-11-09T00:25:43;15.20;57.00
3986;DHT22;2007;48.750;9.278;2022-11-09T00:28:11;15.20;56.90
3986;DHT22;2007;48.750;9.278;2022-11-09T00:30:39;15.20;57.00
3986;DHT22;2007;48.750;9.278;2022-11-09T00:33:07;15.20;56.90
3986;DHT22;2007;48.750;9.278;2022-11-09T00:35:37;15.20;57.00
3986;DHT22;2007;48.750;9.278;2022-11-09T00:38:06;15.20;57.00
3986;DHT22;2007;48.750;9.278;2022-11-09T00:40:34;15.20;57.00
3986;DHT22;2007;48.750;9.278;2022-11-09T00:43:02;15.20;57.00
3986;DHT22;2007;48.750;9.278;2022-11-09T00:45:29;15.20;56.90
3986;DHT22;2007;48.750;9.278;2022-11-09T00:47:57;15.20;57.00
3986;DHT22;2007;48.750;9.278;2022-11-09T00:50:25;15.20;56.90
3986;DHT22;2007;48.750;9.278;2022-11-09T00:52:53;15.20;56.90
3986;DHT22;2007;48.750;9.278;2022-11-09T00:55:22;15.20;56.90
3986;DHT22;2007;48.750;9.278;2022-11-09T00:57:50;15.20;56.90
3986;DHT22;2007;48.750;9.278;2022-11-09T01:00:20;15.20;56.90
3986;DHT22;2007;48.750;9.278;2022-11-09T01:02:49;15.20;56.90
3986;DHT22;2007;48.750;9.278;2022-11-09T01:05:17;15.20;56.90
3986;DHT22;2007;48.750;9.278;2022-11-09T01:07:45;15.20;56.90
3986;DHT22;2007;48.750;9.278;2022-11-09T01:10:13;15.20;57.00
3986;DHT22;2007;48.750;9.278;2022-11-09T01:12:42;15.20;56.90
3986;DHT22;2007;48.750;9.278;2022-11-09T01:15:10;15.20;56.90
3986;DHT22;2007;48.750;9.278;2022-11-09T01:17:38;15.20;56.90
3986;DHT22;2007;48.750;9.278;2022-11-09T01:20:06;15.20;56.90
3986;DHT22;2007;48.750;9.278;2022-11-09T01:22:34;15.20;57.00
3986;DHT22;2007;48.750;9.278;2022-11-09T01:25:02;15.20;56.90
3986;DHT22;2007;48.750;9.278;2022-11-09T01:27:31;15.20;57.00
3986;DHT22;2007;48.750;9.278;2022-11-09T01:30:01;15.20;56.90
3986;DHT22;2007;48.750;9.278;2022-11-09T01:32:31;15.10;56.80
3986;DHT22;2007;48.750;9.278;2022-11-09T01:34:59;15.20;57.60
3986;DHT22;2007;48.750;9.278;2022-11-09T01:37:26;15.20;56.90
3986;DHT22;2007;48.750;9.278;2022-11-09T01:39:54;15.20;56.90
3986;DHT22;2007;48.750;9.278;2022-11-09T01:42:23;15.20;56.90
3986;DHT22;2007;48.750;9.278;2022-11-09T01:45:24;15.20;56.90
3986;DHT22;2007;48.750;9.278;2022-11-09T01:47:58;15.20;56.90
3986;DHT22;2007;48.750;9.278;2022-11-09T01:50:33;15.20;56.90
3986;DHT22;2007;48.750;9.278;2022-11-09T01:53:03;15.20;56.90
3986;DHT22;2007;48.750;9.278;2022-11-09T01:55:33;15.20;56.90
3986;DHT22;2007;48.750;9.278;2022-11-09T01:58:04;15.20;56.90
3986;DHT22;2007;48.750;9.278;2022-11-09T02:00:35;15.20;56.90
3986;DHT22;2007;48.750;9.278;2022-11-09T02:03:06;15.20;56.90
3986;DHT22;2007;48.750;9.278;2022-11-09T02:05:37;15.20;56.90
3986;DHT22;2007;48.750;9.278;2022-11-09T02:08:08;15.20;56.90
3986;DHT22;2007;48.750;9.278;2022-11-09T02:10:42;15.20;56.90
3986;DHT22;2007;48.750;9.278;2022-11-09T02:13:13;15.20;56.90
3986;DHT22;2007;48.750;9.278;2022-11-09T02:15:44;15.20;56.90
3986;DHT22;2007;48.750;9.278;2022-11-09T02:18:12;15.20;56.90
3986;DHT22;2007;48.750;9.278;2022-11-09T02:20:46;15.20;56.90
3986;DHT22;2007;48.750;9.278;2022-11-09T02:23:15;15.20;56.90
3986;DHT22;2007;48.750;9.278;2022-11-09T02:25:47;15.20;56.90
3986;DHT22;2007;48.750;9.278;2022-11-09T02:28:16;15.20;56.90
3986;DHT22;2007;48.750;9.278;2022-11-09T02:30:47;15.20;57.60
3986;DHT22;2007;48.750;9.278;2022-11-09T02:33:16;15.20;56.90
3986;DHT22;2007;48.750;9.278;2022-11-09T02:35:45;15.20;56.90
3986;DHT22;2007;48.750;9.278;2022-11-09T02:38:14;15.20;56.90
3986;DHT22;2007;48.750;9.278;2022-11-09T02:40:45;15.20;56.90
3986;DHT22;2007;48.750;9.278;2022-11-09T02:43:14;15.20;56.90
3986;DHT22;2007;48.750;9.278;2022-11-09T02:45:43;15.20;56.90
3986;DHT22;2007;48.750;9.278;2022-11-09T02:48:11;15.20;56.90
3986;DHT22;2007;48.750;9.278;2022-11-09T02:50:39;15.20;56.90
3986;DHT22;2007;48.750;9.278;2022-11-09T02:53:08;15.20;56.90
3986;DHT22;2007;48.750;9.278;2022-11-09T02:55:36;15.20;57.00
3986;DHT22;2007;48.750;9.278;2022-11-09T02:58:04;15.20;56.90
3986;DHT22;2007;48.750;9.278;2022-11-09T03:00:32;15.20;56.90
3986;DHT22;2007;48.750;9.278;2022-11-09T03:03:00;15.20;56.90
3986;DHT22;2007;48.750;9.278;2022-11-09T03:05:27;15.20;56.90
3986;DHT22;2007;48.750;9.278;2022-11-09T03:07:55;15.20;56.90
3986;DHT22;2007;48.750;9.278;2022-11-09T03:10:29;15.20;56.90
3986;DHT22;2007;48.750;9.278;2022-11-09T03:12:57;15.20;56.90
3986;DHT22;2007;48.750;9.278;2022-11-09T03:15:24;15.20;56.90
3986;DHT22;2007;48.750;9.278;2022-11-09T03:17:52;15.20;56.90
3986;DHT22;2007;48.750;9.278;2022-11-09T03:20:20;15.20;56.90
3986;DHT22;2007;48.750;9.278;2022-11-09T03:22:48;15.20;56.90
3986;DHT22;2007;48.750;9.278;2022-11-09T03:25:16;15.20;56.90
3986;DHT22;2007;48.750;9.278;2022-11-09T03:27:45;15.20;57.00
3986;DHT22;2007;48.750;9.278;2022-11-09T03:30:13;15.20;57.00
3986;DHT22;2007;48.750;9.278;2022-11-09T03:32:41;15.20;56.90
3986;DHT22;2007;48.750;9.278;2022-11-09T03:35:16;15.20;56.90
3986;DHT22;2007;48.750;9.278;2022-11-09T03:37:43;15.20;56.90
3986;DHT22;2007;48.750;9.278;2022-11-09T03:40:11;15.20;56.90
3986;DHT22;2007;48.750;9.278;2022-11-09T03:42:42;15.20;56.90
3986;DHT22;2007;48.750;9.278;2022-11-09T03:45:13;15.20;56.90
3986;DHT22;2007;48.750;9.278;2022-11-09T03:47:41;15.20;56.90
3986;DHT22;2007;48.750;9.278;2022-11-09T03:50:09;15.20;56.90
3986;DHT22;2007;48.750;9.278;2022-11-09T03:52:38;15.20;56.90
3986;DHT22;2007;48.750;9.278;2022-11-09T03:55:06;15.20;56.90
3986;DHT22;2007;48.750;9.278;2022-11-09T03:57:34;15.20;56.90
3986;DHT22;2007;48.750;9.278;2022-11-09T04:00:03;15.20;56.90
3986;DHT22;2007;48.750;9.278;2022-11-09T04:02:32;15.20;57.00
3986;DHT22;2007;48.750;9.278;2022-11-09T04:05:00;15.20;57.00
3986;DHT22;2007;48.750;9.278;2022-11-09T04:07:28;15.20;56.90
3986;DHT22;2007;48.750;9.278;2022-11-09T04:09:56;15.20;57.00
3986;DHT22;2007;48.750;9.278;2022-11-09T04:12:24;15.20;56.90
3986;DHT22;2007;48.750;9.278;2022-11-09T04:14:52;15.20;57.00
3986;DHT22;2007;48.750;9.278;2022-11-09T04:17:20;15.20;56.90
3986;DHT22;2007;48.750;9.278;2022-11-09T04:19:49;15.20;56.90
3986;DHT22;2007;48.750;9.278;2022-11-09T04:22:17;15.20;56.90
3986;DHT22;2007;48.750;9.278;2022-11-09T04:24:45;15.20;56.90
3986;DHT22;2007;48.750;9.278;2022-11-09T04:27:13;15.20;56.90
3986;DHT22;2007;48.750;9.278;2022-11-09T04:29:41;15.20;57.00
3986;DHT22;2007;48.750;9.278;2022-11-09T04:32:09;15.20;57.00
3986;DHT22;2007;48.750;9.278;2022-11-09T04:34:36;15.20;57.00
3986;DHT22;2007;48.750;9.278;2022-11-09T04:37:08;15.20;57.00
3986;DHT22;2007;48.750;9.278;2022-11-09T04:39:36;15.20;56.90
3986;DHT22;2007;48.750;9.278;2022-11-09T04:42:04;15.20;57.00
3986;DHT22;2007;48.750;9.278;2022-11-09T04:44:31;15.20;57.00
3986;DHT22;2007;48.750;9.278;2022-11-09T04:46:59;15.20;57.00
3986;DHT22;2007;48.750;9.278;2022-11-09T04:49:27;15.20;57.00
3986;DHT22;2007;48.750;9.278;2022-11-09T04:51:55;15.20;57.00
3986;DHT22;2007;48.750;9.278;2022-11-09T04:54:24;15.20;57.00
3986;DHT22;2007;48.750;9.278;2022-11-09T04:56:52;15.20;57.00
3986;DHT22;2007;48.750;9.278;2022-11-09T04:59:20;15.20;57.00
3986;DHT22;2007;48.750;9.278;2022-11-09T05:01:48;15.20;57.00
3986;DHT22;2007;48.750;9.278;2022-11-09T05:04:16;15.20;57.00
3986;DHT22;2007;48.750;9.278;2022-11-09T05:06:43;15.20;57.00
3986;DHT22;2007;48.750;9.278;2022-11-09T05:09:11;15.20;57.00
3986;DHT22;2007;48.750;9.278;2022-11-09T05:11:41;15.20;57.00
3986;DHT22;2007;48.750;9.278;2022-11-09T05:14:08;15.20;57.00
3986;DHT22;2007;48.750;9.278;2022-11-09T05:16:36;15.20;57.00
3986;DHT22;2007;48.750;9.278;2022-11-09T05:19:04;15.20;57.00
3986;DHT22;2007;48.750;9.278;2022-11-09T05:21:32;15.20;57.00
3986;DHT22;2007;48.750;9.278;2022-11-09T05:24:00;15.20;57.00
3986;DHT22;2007;48.750;9.278;2022-11-09T05:26:29;15.20;57.00
3986;DHT22;2007;48.750;9.278;2022-11-09T05:29:00;15.20;57.00
3986;DHT22;2007;48.750;9.278;2022-11-09T05:31:29;15.20;57.00
3986;DHT22;2007;48.750;9.278;2022-11-09T05:33:57;15.20;57.00
3986;DHT22;2007;48.750;9.278;2022-11-09T05:36:26;15.20;57.00
3986;DHT22;2007;48.750;9.278;2022-11-09T05:38:55;15.20;57.00
3986;DHT22;2007;48.750;9.278;2022-11-09T05:41:24;15.20;57.00
3986;DHT22;2007;48.750;9.278;2022-11-09T05:43:52;15.20;57.00
3986;DHT22;2007;48.750;9.278;2022-11-09T05:46:21;15.20;57.00
3986;DHT22;2007;48.750;9.278;2022-11-09T05:48:49;15.20;57.00
3986;DHT22;2007;48.750;9.278;2022-11-09T05:51:17;15.20;57.00
3986;DHT22;2007;48.750;9.278;2022-11-09T05:53:45;15.20;57.00
3986;DHT22;2007;48.750;9.278;2022-11-09T05:56:13;15.20;57.60
3986;DHT22;2007;48.750;9.278;2022-11-09T05:58:42;15.20;57.00
3986;DHT22;2007;48.750;9.278;2022-11-09T06:01:11;15.20;57.00
3986;DHT22;2007;48.750;9.278;2022-11-09T06:03:41;15.20;57.00
3986;DHT22;2007;48.750;9.278;2022-11-09T06:06:12;15.20;57.00
3986;DHT22;2007;48.750;9.278;2022-11-09T06:08:41;15.20;57.00
3986;DHT22;2007;48.750;9.278;2022-11-09T06:11:11;15.20;57.00
3986;DHT22;2007;48.750;9.278;2022-11-09T06:13:47;15.20;57.00
3986;DHT22;2007;48.750;9.278;2022-11-09T06:16:15;15.20;57.00
3986;DHT22;2007;48.750;9.278;2022-11-09T06:18:44;15.20;57.00
3986;DHT22;2007;48.750;9.278;2022-11-09T06:21:12;15.20;57.00
3986;DHT22;2007;48.750;9.278;2022-11-09T06:23:40;15.20;57.00
3986;DHT22;2007;48.750;9.278;2022-11-09T06:26:09;15.20;57.00
3986;DHT22;2007;48.750;9.278;2022-11-09T06:28:38;15.20;57.00
3986;DHT22;2007;48.750;9.278;2022-11-09T06:31:08;15.20;57.00
3986;DHT22;2007;48.750;9.278;2022-11-09T06:33:36;15.20;57.00
3986;DHT22;2007;48.750;9.278;2022-11-09T06:36:06;15.20;57.00
3986;DHT22;2007;48.750;9.278;2022-11-09T06:38:35;15.20;57.00
3986;DHT22;2007;48.750;9.278;2022-11-09T06:41:03;15.20;57.00
3986;DHT22;2007;48.750;9.278;2022-11-09T06:43:31;15.20;57.00
3986;DHT22;2007;48.750;9.278;2022-11-09T06:46:02;15.20;57.00
3986;DHT22;2007;48.750;9.278;2022-11-09T06:48:30;15.20;57.10
3986;DHT22;2007;48.750;9.278;2022-11-09T06:51:01;15.20;57.00
3986;DHT22;2007;48.750;9.278;2022-11-09T06:53:32;15.20;57.00
3986;DHT22;2007;48.750;9.278;2022-11-09T06:56:01;15.20;57.10
3986;DHT22;2007;48.750;9.278;2022-11-09T06:58:31;15.20;57.00
3986;DHT22;2007;48.750;9.278;2022-11-09T07:00:59;15.20;57.10
3986;DHT22;2007;48.750;9.278;2022-11-09T07:03:26;15.20;57.10
3986;DHT22;2007;48.750;9.278;2022-11-09T07:05:54;15.20;57.10
3986;DHT22;2007;48.750;9.278;2022-11-09T07:08:22;15.20;57.10
3986;DHT22;2007;48.750;9.278;2022-11-09T07:10:51;15.20;57.10
3986;DHT22;2007;48.750;9.278;2022-11-09T07:13:19;15.20;57.10
3986;DHT22;2007;48.750;9.278;2022-11-09T07:15:52;15.20;57.10
3986;DHT22;2007;48.750;9.278;2022-11-09T07:18:20;15.20;57.10
3986;DHT22;2007;48.750;9.278;2022-11-09T07:20:49;15.20;57.10
3986;DHT22;2007;48.750;9.278;2022-11-09T07:23:17;15.20;57.00
3986;DHT22;2007;48.750;9.278;2022-11-09T07:25:46;15.20;57.10
3986;DHT22;2007;48.750;9.278;2022-11-09T07:28:15;15.20;57.10
3986;DHT22;2007;48.750;9.278;2022-11-09T07:30:43;15.20;57.10
3986;DHT22;2007;48.750;9.278;2022-11-09T07:33:13;15.20;57.10
3986;DHT22;2007;48.750;9.278;2022-11-09T07:35:44;15.20;57.10
3986;DHT22;2007;48.750;9.278;2022-11-09T07:38:12;15.20;57.10
3986;DHT22;2007;48.750;9.278;2022-11-09T07:40:41;15.20;57.10
3986;DHT22;2007;48.750;9.278;2022-11-09T07:43:10;15.20;57.10
3986;DHT22;2007;48.750;9.278;2022-11-09T07:45:39;15.20;57.10
3986;DHT22;2007;48.750;9.278;2022-11-09T07:48:09;15.20;57.10
3986;DHT22;2007;48.750;9.278;2022-11-09T07:50:38;15.20;57.10
3986;DHT22;2007;48.750;9.278;2022-11-09T07:53:08;15.20;57.10
3986;DHT22;2007;48.750;9.278;2022-11-09T07:55:36;15.20;57.10
3986;DHT22;2007;48.750;9.278;2022-11-09T07:58:06;15.20;57.10
3986;DHT22;2007;48.750;9.278;2022-11-09T08:00:35;15.20;57.10
3986;DHT22;2007;48.750;9.278;2022-11-09T08:03:05;15.20;57.10
3986;DHT22;2007;48.750;9.278;2022-11-09T08:05:33;15.20;57.10
3986;DHT22;2007;48.750;9.278;2022-11-09T08:08:03;15.20;57.10
3986;DHT22;2007;48.750;9.278;2022-11-09T08:10:32;15.20;57.10
3986;DHT22;2007;48.750;9.278;2022-11-09T08:13:02;15.20;57.10
3986;DHT22;2007;48.750;9.278;2022-11-09T08:15:31;15.20;57.10
3986;DHT22;2007;48.750;9.278;2022-11-09T08:18:00;15.20;57.10
3986;DHT22;2007;48.750;9.278;2022-11-09T08:20:29;15.20;57.10
3986;DHT22;2007;48.750;9.278;2022-11-09T08:22:57;15.20;57.10
3986;DHT22;2007;48.750;9.278;2022-11-09T08:25:30;15.20;57.10
3986;DHT22;2007;48.750;9.278;2022-11-09T08:28:00;15.20;57.10
3986;DHT22;2007;48.750;9.278;2022-11-09T08:30:29;15.20;57.10
3986;DHT22;2007;48.750;9.278;2022-11-09T08:32:58;15.20;57.10
3986;DHT22;2007;48.750;9.278;2022-11-09T08:35:26;15.20;57.10
3986;DHT22;2007;48.750;9.278;2022-11-09T08:37:59;15.20;57.10
3986;DHT22;2007;48.750;9.278;2022-11-09T08:40:28;15.20;57.10
3986;DHT22;2007;48.750;9.278;2022-11-09T08:43:00;15.20;57.10
3986;DHT22;2007;48.750;9.278;2022-11-09T08:45:29;15.20;57.10
3986;DHT22;2007;48.750;9.278;2022-11-09T08:47:57;15.20;57.10
3986;DHT22;2007;48.750;9.278;2022-11-09T08:50:26;15.20;57.10
3986;DHT22;2007;48.750;9.278;2022-11-09T08:52:56;15.20;57.10
3986;DHT22;2007;48.750;9.278;2022-11-09T08:55:24;15.20;57.10
3986;DHT22;2007;48.750;9.278;2022-11-09T08:57:53;15.20;57.10
3986;DHT22;2007;48.750;9.278;2022-11-09T09:00:21;15.20;57.10
3986;DHT22;2007;48.750;9.278;2022-11-09T09:02:49;15.20;57.10
3986;DHT22;2007;48.750;9.278;2022-11-09T09:05:17;15.20;57.10
3986;DHT22;2007;48.750;9.278;2022-11-09T09:07:45;15.20;57.20
3986;DHT22;2007;48.750;9.278;2022-11-09T09:10:15;15.20;57.10
3986;DHT22;2007;48.750;9.278;2022-11-09T09:12:43;15.20;57.10
3986;DHT22;2007;48.750;9.278;2022-11-09T09:15:11;15.20;57.10
3986;DHT22;2007;48.750;9.278;2022-11-09T09:17:38;15.20;57.10
3986;DHT22;2007;48.750;9.278;2022-11-09T09:20:07;15.20;57.10
3986;DHT22;2007;48.750;9.278;2022-11-09T09:22:35;15.20;57.10
3986;DHT22;2007;48.750;9.278;2022-11-09T09:25:04;15.20;57.20
3986;DHT22;2007;48.750;9.278;2022-11-09T09:27:33;15.20;57.10
3986;DHT22;2007;48.750;9.278;2022-11-09T09:30:02;15.20;57.20
3986;DHT22;2007;48.750;9.278;2022-11-09T09:32:30;15.20;57.20
3986;DHT22;2007;48.750;9.278;2022-11-09T09:34:58;15.20;57.20
3986;DHT22;2007;48.750;9.278;2022-11-09T09:37:26;15.20;57.20
3986;DHT22;2007;48.750;9.278;2022-11-09T09:39:54;15.20;57.20
3986;DHT22;2007;48.750;9.278;2022-11-09T09:42:26;15.20;57.20
3986;DHT22;2007;48.750;9.278;2022-11-09T09:44:59;15.20;57.20
3986;DHT22;2007;48.750;9.278;2022-11-09T09:47:39;15.20;57.20
3986;DHT22;2007;48.750;9.278;2022-11-09T09:50:12;15.20;57.20
3986;DHT22;2007;48.750;9.278;2022-11-09T09:52:43;15.20;57.20
3986;DHT22;2007;48.750;9.278;2022-11-09T09:55:35;15.20;57.20
3986;DHT22;2007;48.750;9.278;2022-11-09T09:58:09;15.20;57.20
3986;DHT22;2007;48.750;9.278;2022-11-09T10:00:40;15.20;57.20
3986;DHT22;2007;48.750;9.278;2022-11-09T10:03:14;15.20;57.20
3986;DHT22;2007;48.750;9.278;2022-11-09T10:05:47;15.20;57.20
3986;DHT22;2007;48.750;9.278;2022-11-09T10:08:23;15.20;57.20
3986;DHT22;2007;48.750;9.278;2022-11-09T10:11:01;15.20;57.20
3986;DHT22;2007;48.750;9.278;2022-11-09T10:13:46;15.20;57.20
3986;DHT22;2007;48.750;9.278;2022-11-09T10:16:24;15.20;57.20
3986;DHT22;2007;48.750;9.278;2022-11-09T10:21:56;15.20;57.20
3986;DHT22;2007;48.750;9.278;2022-11-09T10:24:34;15.20;57.20
3986;DHT22;2007;48.750;9.278;2022-11-09T10:27:31;15.20;57.20
3986;DHT22;2007;48.750;9.278;2022-11-09T10:30:01;15.20;57.20
3986;DHT22;2007;48.750;9.278;2022-11-09T10:32:31;15.20;57.20
3986;DHT22;2007;48.750;9.278;2022-11-09T10:35:04;15.20;57.20
3986;DHT22;2007;48.750;9.278;2022-11-09T10:37:37;15.20;57.20
3986;DHT22;2007;48.750;9.278;2022-11-09T10:40:14;15.20;57.20
3986;DHT22;2007;48.750;9.278;2022-11-09T10:42:48;15.20;57.20
3986;DHT22;2007;48.750;9.278;2022-11-09T10:45:24;15.20;57.20
3986;DHT22;2007;48.750;9.278;2022-11-09T10:47:54;15.20;57.20
3986;DHT22;2007;48.750;9.278;2022-11-09T10:50:26;15.20;57.20
3986;DHT22;2007;48.750;9.278;2022-11-09T10:53:12;15.20;57.20
3986;DHT22;2007;48.750;9.278;2022-11-09T10:55:50;15.20;57.20
3986;DHT22;2007;48.750;9.278;2022-11-09T10:58:27;15.20;57.20
3986;DHT22;2007;48.750;9.278;2022-11-09T11:01:03;15.20;57.20
3986;DHT22;2007;48.750;9.278;2022-11-09T11:03:34;15.20;57.20
3986;DHT22;2007;48.750;9.278;2022-11-09T11:06:05;15.20;57.20
3986;DHT22;2007;48.750;9.278;2022-11-09T11:08:39;15.20;57.20
3986;DHT22;2007;48.750;9.278;2022-11-09T11:11:25;15.20;57.20
3986;DHT22;2007;48.750;9.278;2022-11-09T11:14:12;15.20;57.20
3986;DHT22;2007;48.750;9.278;2022-11-09T11:16:49;15.20;57.20
3986;DHT22;2007;48.750;9.278;2022-11-09T11:19:31;15.20;57.20
3986;DHT22;2007;48.750;9.278;2022-11-09T11:22:14;15.20;57.20
3986;DHT22;2007;48.750;9.278;2022-11-09T11:24:46;15.20;57.20
3986;DHT22;2007;48.750;9.278;2022-11-09T11:27:21;15.20;57.20
3986;DHT22;2007;48.750;9.278;2022-11-09T11:29:55;15.20;57.20
3986;DHT22;2007;48.750;9.278;2022-11-09T11:32:26;15.30;57.30
3986;DHT22;2007;48.750;9.278;2022-11-09T11:34:55;15.30;57.30
3986;DHT22;2007;48.750;9.278;2022-11-09T11:37:39;15.20;57.20
3986;DHT22;2007;48.750;9.278;2022-11-09T11:40:16;15.30;57.40
3986;DHT22;2007;48.750;9.278;2022-11-09T11:43:06;15.30;57.30
3986;DHT22;2007;48.750;9.278;2022-11-09T11:45:40;15.30;57.30
3986;DHT22;2007;48.750;9.278;2022-11-09T11:48:25;15.30;57.30
3986;DHT22;2007;48.750;9.278;2022-11-09T11:51:02;15.20;57.20
3986;DHT22;2007;48.750;9.278;2022-11-09T11:53:45;15.30;57.30
3986;DHT22;2007;48.750;9.278;2022-11-09T11:56:21;15.30;58.00
3986;DHT22;2007;48.750;9.278;2022-11-09T11:59:14;15.20;57.20
3986;DHT22;2007;48.750;9.278;2022-11-09T12:02:02;15.30;57.40
3986;DHT22;2007;48.750;9.278;2022-11-09T12:04:49;15.20;57.80
3986;DHT22;2007;48.750;9.278;2022-11-09T12:07:32;15.30;57.30
3986;DHT22;2007;48.750;9.278;2022-11-09T12:10:19;15.20;57.30
3986;DHT22;2007;48.750;9.278;2022-11-09T12:12:58;15.20;57.20
3986;DHT22;2007;48.750;9.278;2022-11-09T12:15:35;15.30;57.30
3986;DHT22;2007;48.750;9.278;2022-11-09T12:18:18;15.30;57.30
3986;DHT22;2007;48.750;9.278;2022-11-09T12:20:56;15.30;58.00
3986;DHT22;2007;48.750;9.278;2022-11-09T12:23:42;15.30;57.30
3986;DHT22;2007;48.750;9.278;2022-11-09T12:26:18;15.20;57.30
3986;DHT22;2007;48.750;9.278;2022-11-09T12:29:01;15.30;57.30
3986;DHT22;2007;48.750;9.278;2022-11-09T12:31:38;15.30;57.40
3986;DHT22;2007;48.750;9.278;2022-11-09T12:34:16;15.30;57.30
3986;DHT22;2007;48.750;9.278;2022-11-09T12:36:50;15.30;57.30
3986;DHT22;2007;48.750;9.278;2022-11-09T12:39:25;15.20;57.20
3986;DHT22;2007;48.750;9.278;2022-11-09T12:41:59;15.30;57.30
3986;DHT22;2007;48.750;9.278;2022-11-09T12:44:32;15.30;57.30
3986;DHT22;2007;48.750;9.278;2022-11-09T12:47:03;15.30;57.30
3986;DHT22;2007;48.750;9.278;2022-11-09T12:49:35;15.30;57.30
3986;DHT22;2007;48.750;9.278;2022-11-09T12:52:04;15.30;57.30
3986;DHT22;2007;48.750;9.278;2022-11-09T12:54:35;15.30;57.30
3986;DHT22;2007;48.750;9.278;2022-11-09T12:57:08;15.30;57.30
3986;DHT22;2007;48.750;9.278;2022-11-09T12:59:45;15.30;57.30
3986;DHT22;2007;48.750;9.278;2022-11-09T13:02:22;15.30;57.30
3986;DHT22;2007;48.750;9.278;2022-11-09T13:04:55;15.30;57.30
3986;DHT22;2007;48.750;9.278;2022-11-09T13:07:43;15.30;57.30
3986;DHT22;2007;48.750;9.278;2022-11-09T13:10:29;15.30;57.30
3986;DHT22;2007;48.750;9.278;2022-11-09T13:13:14;15.30;57.40
3986;DHT22;2007;48.750;9.278;2022-11-09T13:16:11;15.30;57.40
3986;DHT22;2007;48.750;9.278;2022-11-09T13:18:48;15.30;57.30
3986;DHT22;2007;48.750;9.278;2022-11-09T13:21:36;15.30;57.30
3986;DHT22;2007;48.750;9.278;2022-11-09T13:27:40;15.30;57.30
3986;DHT22;2007;48.750;9.278;2022-11-09T13:33:21;15.30;57.30
3986;DHT22;2007;48.750;9.278;2022-11-09T13:36:20;15.30;57.30
3986;DHT22;2007;48.750;9.278;2022-11-09T13:39:26;15.30;57.30
3986;DHT22;2007;48.750;9.278;2022-11-09T13:41:54;15.30;57.30
3986;DHT22;2007;48.750;9.278;2022-11-09T13:44:26;15.30;57.30
3986;DHT22;2007;48.750;9.278;2022-11-09T13:47:01;15.30;57.30
3986;DHT22;2007;48.750;9.278;2022-11-09T13:49:47;15.30;57.30
3986;DHT22;2007;48.750;9.278;2022-11-09T13:52:49;15.30;57.30
3986;DHT22;2007;48.750;9.278;2022-11-09T13:55:28;15.30;57.40
3986;DHT22;2007;48.750;9.278;2022-11-09T13:57:59;15.30;57.30
3986;DHT22;2007;48.750;9.278;2022-11-09T14:00:31;15.30;57.30
3986;DHT22;2007;48.750;9.278;2022-11-09T14:03:00;15.30;57.30
3986;DHT22;2007;48.750;9.278;2022-11-09T14:05:31;15.30;57.30
3986;DHT22;2007;48.750;9.278;2022-11-09T14:08:02;15.30;57.40
3986;DHT22;2007;48.750;9.278;2022-11-09T14:10:45;15.30;57.30
3986;DHT22;2007;48.750;9.278;2022-11-09T14:13:35;15.30;57.30
3986;DHT22;2007;48.750;9.278;2022-11-09T14:16:13;15.30;57.30
3986;DHT22;2007;48.750;9.278;2022-11-09T14:18:55;15.30;57.30
3986;DHT22;2007;48.750;9.278;2022-11-09T14:21:33;15.30;57.30
3986;DHT22;2007;48.750;9.278;2022-11-09T14:24:13;15.30;57.30
3986;DHT22;2007;48.750;9.278;2022-11-09T14:26:59;15.30;57.30
3986;DHT22;2007;48.750;9.278;2022-11-09T14:29:28;15.30;57.30
3986;DHT22;2007;48.750;9.278;2022-11-09T14:32:01;15.30;57.30
3986;DHT22;2007;48.750;9.278;2022-11-09T14:34:29;15.30;57.40
3986;DHT22;2007;48.750;9.278;2022-11-09T14:36:57;15.30;57.30
3986;DHT22;2007;48.750;9.278;2022-11-09T14:39:31;15.30;57.30
3986;DHT22;2007;48.750;9.278;2022-11-09T14:42:00;15.30;57.30
3986;DHT22;2007;48.750;9.278;2022-11-09T14:44:29;15.30;57.30
3986;DHT22;2007;48.750;9.278;2022-11-09T14:47:02;15.30;57.30
3986;DHT22;2007;48.750;9.278;2022-11-09T14:49:31;15.30;57.30
3986;DHT22;2007;48.750;9.278;2022-11-09T14:51:59;15.30;57.30
3986;DHT22;2007;48.750;9.278;2022-11-09T14:54:28;15.30;57.30
3986;DHT22;2007;48.750;9.278;2022-11-09T14:56:56;15.40;57.40
3986;DHT22;2007;48.750;9.278;2022-11-09T14:59:28;15.30;57.30
3986;DHT22;2007;48.750;9.278;2022-11-09T15:02:04;15.30;57.90
3986;DHT22;2007;48.750;9.278;2022-11-09T15:04:51;15.40;57.40
3986;DHT22;2007;48.750;9.278;2022-11-09T15:07:21;15.40;57.40
3986;DHT22;2007;48.750;9.278;2022-11-09T15:09:53;15.40;57.40
3986;DHT22;2007;48.750;9.278;2022-11-09T15:12:22;15.40;57.40
3986;DHT22;2007;48.750;9.278;2022-11-09T15:14:52;15.30;57.40
3986;DHT22;2007;48.750;9.278;2022-11-09T15:17:25;15.30;57.30
3986;DHT22;2007;48.750;9.278;2022-11-09T15:19:56;15.40;57.40
3986;DHT22;2007;48.750;9.278;2022-11-09T15:22:43;15.30;57.30
3986;DHT22;2007;48.750;9.278;2022-11-09T15:25:23;15.40;57.40
3986;DHT22;2007;48.750;9.278;2022-11-09T15:27:58;15.40;57.40
3986;DHT22;2007;48.750;9.278;2022-11-09T15:30:28;15.40;57.40
3986;DHT22;2007;48.750;9.278;2022-11-09T15:32:58;15.30;57.40
3986;DHT22;2007;48.750;9.278;2022-11-09T15:35:26;15.40;57.40
3986;DHT22;2007;48.750;9.278;2022-11-09T15:37:54;15.40;57.40
3986;DHT22;2007;48.750;9.278;2022-11-09T15:40:23;15.40;57.40
3986;DHT22;2007;48.750;9.278;2022-11-09T15:42:51;15.40;57.40
3986;DHT22;2007;48.750;9.278;2022-11-09T15:45:20;15.40;57.40
3986;DHT22;2007;48.750;9.278;2022-11-09T15:47:50;15.40;57.40
3986;DHT22;2007;48.750;9.278;2022-11-09T15:50:23;15.40;57.40
3986;DHT22;2007;48.750;9.278;2022-11-09T15:52:52;15.40;57.40
3986;DHT22;2007;48.750;9.278;2022-11-09T15:55:21;15.40;57.40
3986;DHT22;2007;48.750;9.278;2022-11-09T15:57:50;15.40;57.40
3986;DHT22;2007;48.750;9.278;2022-11-09T16:00:20;15.40;57.40
3986;DHT22;2007;48.750;9.278;2022-11-09T16:02:48;15.40;57.40
3986;DHT22;2007;48.750;9.278;2022-11-09T16:05:16;15.40;57.40
3986;DHT22;2007;48.750;9.278;2022-11-09T16:07:50;15.40;57.40
3986;DHT22;2007;48.750;9.278;2022-11-09T16:10:19;15.40;57.40
3986;DHT22;2007;48.750;9.278;2022-11-09T16:12:49;15.40;57.40
3986;DHT22;2007;48.750;9.278;2022-11-09T16:15:19;15.40;57.40
3986;DHT22;2007;48.750;9.278;2022-11-09T16:17:47;15.40;57.40
3986;DHT22;2007;48.750;9.278;2022-11-09T16:20:16;15.40;57.40
3986;DHT22;2007;48.750;9.278;2022-11-09T16:22:45;15.40;57.40
3986;DHT22;2007;48.750;9.278;2022-11-09T16:25:14;15.40;57.40
3986;DHT22;2007;48.750;9.278;2022-11-09T16:27:43;15.40;57.40
3986;DHT22;2007;48.750;9.278;2022-11-09T16:30:17;15.40;57.40
3986;DHT22;2007;48.750;9.278;2022-11-09T16:32:45;15.40;57.40
3986;DHT22;2007;48.750;9.278;2022-11-09T16:35:13;15.40;57.40
3986;DHT22;2007;48.750;9.278;2022-11-09T16:37:53;15.40;57.40
3986;DHT22;2007;48.750;9.278;2022-11-09T16:40:22;15.40;57.40